sensor_id;sensor_type;location;lat;lon;timestamp;temperature;humidity
530;DHT22;251;48.704;9.210;2022-10-18T00:00:05;12.20;59.80
530;DHT22;251;48.704;9.210;2022-10-18T00:02:36;12.00;59.40
530;DHT22;251;48.704;9.210;2022-10-18T00:05:04;12.20;60.00
530;DHT22;251;48.704;9.210;2022-10-18T00:07:30;11.90;59.40
530;DHT22;251;48.704;9.210;2022-10-18T00:09:57;12.10;59.40
530;DHT22;251;48.704;9.210;2022-10-18T00:12:26;12.10;58.60
530;DHT22;251;48.704;9.210;2022-10-18T00:14:53;12.00;59.40
530;DHT22;251;48.704;9.210;2022-10-18T00:17:20;12.00;58.20
530;DHT22;251;48.704;9.210;2022-10-18T00:19:49;12.10;59.10
530;DHT22;251;48.704;9.210;2022-10-18T00:22:15;12.00;59.10
530;DHT22;251;48.704;9.210;2022-10-18T00:24:43;11.90;58.70
530;DHT22;251;48.704;9.210;2022-10-18T00:27:10;12.00;58.60
530;DHT22;251;48.704;9.210;2022-10-18T00:29:38;11.60;58.10
530;DHT22;251;48.704;9.210;2022-10-18T00:32:05;11.70;58.70
530;DHT22;251;48.704;9.210;2022-10-18T00:34:32;11.80;58.90
530;DHT22;251;48.704;9.210;2022-10-18T00:36:59;11.70;58.90
530;DHT22;251;48.704;9.210;2022-10-18T00:39:26;11.80;59.00
530;DHT22;251;48.704;9.210;2022-10-18T00:41:52;11.80;60.00
530;DHT22;251;48.704;9.210;2022-10-18T00:45:04;11.70;59.20
530;DHT22;251;48.704;9.210;2022-10-18T00:47:32;11.40;59.90
530;DHT22;251;48.704;9.210;2022-10-18T00:50:02;11.70;59.80
530;DHT22;251;48.704;9.210;2022-10-18T00:52:32;11.70;60.50
530;DHT22;251;48.704;9.210;2022-10-18T00:55:02;11.60;60.80
530;DHT22;251;48.704;9.210;2022-10-18T00:57:29;11.60;60.50
530;DHT22;251;48.704;9.210;2022-10-18T00:59:57;11.80;61.00
530;DHT22;251;48.704;9.210;2022-10-18T01:02:26;11.70;61.60
530;DHT22;251;48.704;9.210;2022-10-18T01:04:53;11.70;62.30
530;DHT22;251;48.704;9.210;2022-10-18T01:07:34;11.50;61.50
530;DHT22;251;48.704;9.210;2022-10-18T01:10:15;11.60;62.90
530;DHT22;251;48.704;9.210;2022-10-18T01:12:49;11.70;63.90
530;DHT22;251;48.704;9.210;2022-10-18T01:15:21;11.60;63.40
530;DHT22;251;48.704;9.210;2022-10-18T01:17:57;11.60;63.10
530;DHT22;251;48.704;9.210;2022-10-18T01:20:48;11.60;63.30
530;DHT22;251;48.704;9.210;2022-10-18T01:23:36;11.50;63.90
530;DHT22;251;48.704;9.210;2022-10-18T01:26:17;11.70;64.20
530;DHT22;251;48.704;9.210;2022-10-18T01:28:55;11.70;64.40
530;DHT22;251;48.704;9.210;2022-10-18T01:31:25;11.80;64.70
530;DHT22;251;48.704;9.210;2022-10-18T01:33:57;11.70;64.70
530;DHT22;251;48.704;9.210;2022-10-18T01:36:28;11.60;65.10
530;DHT22;251;48.704;9.210;2022-10-18T01:39:00;11.60;67.10
530;DHT22;251;48.704;9.210;2022-10-18T01:41:29;11.40;67.50
530;DHT22;251;48.704;9.210;2022-10-18T01:43:58;11.50;69.30
530;DHT22;251;48.704;9.210;2022-10-18T01:46:27;11.60;70.80
530;DHT22;251;48.704;9.210;2022-10-18T01:48:55;11.60;71.20
530;DHT22;251;48.704;9.210;2022-10-18T01:51:24;11.50;69.70
530;DHT22;251;48.704;9.210;2022-10-18T01:53:51;11.80;71.00
530;DHT22;251;48.704;9.210;2022-10-18T01:56:24;11.90;72.30
530;DHT22;251;48.704;9.210;2022-10-18T01:59:04;11.70;71.50
530;DHT22;251;48.704;9.210;2022-10-18T02:01:41;11.70;72.30
530;DHT22;251;48.704;9.210;2022-10-18T02:04:15;12.00;74.60
530;DHT22;251;48.704;9.210;2022-10-18T02:06:47;11.80;74.50
530;DHT22;251;48.704;9.210;2022-10-18T02:09:20;11.90;74.40
530;DHT22;251;48.704;9.210;2022-10-18T02:11:52;12.00;74.70
530;DHT22;251;48.704;9.210;2022-10-18T02:14:22;12.00;73.50
530;DHT22;251;48.704;9.210;2022-10-18T02:16:55;11.90;72.90
530;DHT22;251;48.704;9.210;2022-10-18T02:19:26;12.10;73.80
530;DHT22;251;48.704;9.210;2022-10-18T02:21:56;12.10;73.40
530;DHT22;251;48.704;9.210;2022-10-18T02:24:30;11.90;75.30
530;DHT22;251;48.704;9.210;2022-10-18T02:27:00;12.10;75.90
530;DHT22;251;48.704;9.210;2022-10-18T02:29:27;11.80;74.30
530;DHT22;251;48.704;9.210;2022-10-18T02:32:03;12.00;76.10
530;DHT22;251;48.704;9.210;2022-10-18T02:34:35;12.00;76.10
530;DHT22;251;48.704;9.210;2022-10-18T02:37:03;12.10;75.80
530;DHT22;251;48.704;9.210;2022-10-18T02:39:33;12.20;74.40
530;DHT22;251;48.704;9.210;2022-10-18T02:42:03;12.00;76.90
530;DHT22;251;48.704;9.210;2022-10-18T02:44:33;12.20;75.70
530;DHT22;251;48.704;9.210;2022-10-18T02:47:02;12.20;76.60
530;DHT22;251;48.704;9.210;2022-10-18T02:49:30;12.20;76.80
530;DHT22;251;48.704;9.210;2022-10-18T02:51:56;12.00;77.00
530;DHT22;251;48.704;9.210;2022-10-18T02:54:23;12.20;77.60
530;DHT22;251;48.704;9.210;2022-10-18T02:56:50;11.90;76.40
530;DHT22;251;48.704;9.210;2022-10-18T02:59:17;11.90;77.50
530;DHT22;251;48.704;9.210;2022-10-18T03:01:44;12.10;77.50
530;DHT22;251;48.704;9.210;2022-10-18T03:04:13;12.20;77.60
530;DHT22;251;48.704;9.210;2022-10-18T03:06:39;12.30;77.20
530;DHT22;251;48.704;9.210;2022-10-18T03:09:06;12.50;77.50
530;DHT22;251;48.704;9.210;2022-10-18T03:11:33;12.10;77.20
530;DHT22;251;48.704;9.210;2022-10-18T03:14:00;12.30;77.40
530;DHT22;251;48.704;9.210;2022-10-18T03:16:27;12.40;78.20
530;DHT22;251;48.704;9.210;2022-10-18T03:18:54;12.40;78.60
530;DHT22;251;48.704;9.210;2022-10-18T03:21:22;12.60;77.70
530;DHT22;251;48.704;9.210;2022-10-18T03:23:49;12.40;77.40
530;DHT22;251;48.704;9.210;2022-10-18T03:26:16;12.40;77.70
530;DHT22;251;48.704;9.210;2022-10-18T03:28:43;12.50;77.60
530;DHT22;251;48.704;9.210;2022-10-18T03:31:10;12.60;78.80
530;DHT22;251;48.704;9.210;2022-10-18T03:33:37;12.60;79.40
530;DHT22;251;48.704;9.210;2022-10-18T03:36:04;12.70;79.30
530;DHT22;251;48.704;9.210;2022-10-18T03:38:32;12.60;78.90
530;DHT22;251;48.704;9.210;2022-10-18T03:40:59;12.50;79.60
530;DHT22;251;48.704;9.210;2022-10-18T03:43:26;12.50;80.10
530;DHT22;251;48.704;9.210;2022-10-18T03:45:53;12.40;80.00
530;DHT22;251;48.704;9.210;2022-10-18T03:48:20;12.30;80.50
530;DHT22;251;48.704;9.210;2022-10-18T03:50:47;12.70;80.90
530;DHT22;251;48.704;9.210;2022-10-18T03:53:14;12.40;80.30
530;DHT22;251;48.704;9.210;2022-10-18T03:55:42;12.40;79.90
530;DHT22;251;48.704;9.210;2022-10-18T03:58:10;12.60;80.60
530;DHT22;251;48.704;9.210;2022-10-18T04:00:37;12.60;80.80
530;DHT22;251;48.704;9.210;2022-10-18T04:03:05;12.50;81.00
530;DHT22;251;48.704;9.210;2022-10-18T04:05:31;12.70;80.90
530;DHT22;251;48.704;9.210;2022-10-18T04:07:59;12.40;80.40
530;DHT22;251;48.704;9.210;2022-10-18T04:10:26;13.00;80.30
530;DHT22;251;48.704;9.210;2022-10-18T04:12:55;12.60;80.10
530;DHT22;251;48.704;9.210;2022-10-18T04:15:22;12.70;80.70
530;DHT22;251;48.704;9.210;2022-10-18T04:17:49;12.50;79.90
530;DHT22;251;48.704;9.210;2022-10-18T04:20:16;12.80;79.70
530;DHT22;251;48.704;9.210;2022-10-18T04:22:43;12.90;79.20
530;DHT22;251;48.704;9.210;2022-10-18T04:25:10;12.70;78.60
530;DHT22;251;48.704;9.210;2022-10-18T04:27:36;12.80;79.20
530;DHT22;251;48.704;9.210;2022-10-18T04:30:06;12.70;77.80
530;DHT22;251;48.704;9.210;2022-10-18T04:32:33;12.60;76.80
530;DHT22;251;48.704;9.210;2022-10-18T04:35:00;12.60;76.80
530;DHT22;251;48.704;9.210;2022-10-18T04:37:27;13.00;77.30
530;DHT22;251;48.704;9.210;2022-10-18T04:39:54;12.70;76.80
530;DHT22;251;48.704;9.210;2022-10-18T04:42:22;12.60;75.40
530;DHT22;251;48.704;9.210;2022-10-18T04:44:49;12.90;75.80
530;DHT22;251;48.704;9.210;2022-10-18T04:47:18;12.50;75.10
530;DHT22;251;48.704;9.210;2022-10-18T04:49:44;12.50;75.60
530;DHT22;251;48.704;9.210;2022-10-18T04:52:12;12.30;75.40
530;DHT22;251;48.704;9.210;2022-10-18T04:54:39;12.30;75.10
530;DHT22;251;48.704;9.210;2022-10-18T04:57:05;12.60;75.40
530;DHT22;251;48.704;9.210;2022-10-18T04:59:32;12.40;76.00
530;DHT22;251;48.704;9.210;2022-10-18T05:01:59;12.50;72.70
530;DHT22;251;48.704;9.210;2022-10-18T05:04:27;12.70;72.60
530;DHT22;251;48.704;9.210;2022-10-18T05:06:54;12.30;74.10
530;DHT22;251;48.704;9.210;2022-10-18T05:09:21;12.60;76.30
530;DHT22;251;48.704;9.210;2022-10-18T05:11:49;12.60;76.70
530;DHT22;251;48.704;9.210;2022-10-18T05:14:16;12.20;75.50
530;DHT22;251;48.704;9.210;2022-10-18T05:16:43;12.40;74.00
530;DHT22;251;48.704;9.210;2022-10-18T05:19:10;12.30;74.20
530;DHT22;251;48.704;9.210;2022-10-18T05:21:38;12.40;73.60
530;DHT22;251;48.704;9.210;2022-10-18T05:24:05;12.50;74.30
530;DHT22;251;48.704;9.210;2022-10-18T05:26:32;12.10;73.90
530;DHT22;251;48.704;9.210;2022-10-18T05:28:59;12.30;75.20
530;DHT22;251;48.704;9.210;2022-10-18T05:31:26;11.90;77.40
530;DHT22;251;48.704;9.210;2022-10-18T05:33:53;12.10;79.20
530;DHT22;251;48.704;9.210;2022-10-18T05:36:20;12.30;79.50
530;DHT22;251;48.704;9.210;2022-10-18T05:38:48;12.20;79.90
530;DHT22;251;48.704;9.210;2022-10-18T05:41:15;12.10;79.60
530;DHT22;251;48.704;9.210;2022-10-18T05:43:41;12.20;78.80
530;DHT22;251;48.704;9.210;2022-10-18T05:46:09;12.10;78.60
530;DHT22;251;48.704;9.210;2022-10-18T05:48:37;12.40;79.70
530;DHT22;251;48.704;9.210;2022-10-18T05:51:04;12.10;79.80
530;DHT22;251;48.704;9.210;2022-10-18T05:53:31;12.10;78.90
530;DHT22;251;48.704;9.210;2022-10-18T05:56:00;12.10;78.70
530;DHT22;251;48.704;9.210;2022-10-18T05:58:27;12.00;79.60
530;DHT22;251;48.704;9.210;2022-10-18T06:00:57;12.30;79.70
530;DHT22;251;48.704;9.210;2022-10-18T06:03:25;12.20;77.50
530;DHT22;251;48.704;9.210;2022-10-18T06:05:58;12.30;75.70
530;DHT22;251;48.704;9.210;2022-10-18T06:08:25;12.20;76.00
530;DHT22;251;48.704;9.210;2022-10-18T06:10:52;12.10;75.10
530;DHT22;251;48.704;9.210;2022-10-18T06:13:20;12.10;73.50
530;DHT22;251;48.704;9.210;2022-10-18T06:15:47;12.10;74.70
530;DHT22;251;48.704;9.210;2022-10-18T06:18:14;12.10;75.10
530;DHT22;251;48.704;9.210;2022-10-18T06:20:41;12.10;75.20
530;DHT22;251;48.704;9.210;2022-10-18T06:23:08;12.10;74.80
530;DHT22;251;48.704;9.210;2022-10-18T06:25:35;12.10;74.70
530;DHT22;251;48.704;9.210;2022-10-18T06:28:03;12.00;75.30
530;DHT22;251;48.704;9.210;2022-10-18T06:30:31;12.20;76.00
530;DHT22;251;48.704;9.210;2022-10-18T06:32:59;12.10;78.10
530;DHT22;251;48.704;9.210;2022-10-18T06:35:26;12.10;79.80
530;DHT22;251;48.704;9.210;2022-10-18T06:37:53;12.20;81.20
530;DHT22;251;48.704;9.210;2022-10-18T06:40:20;12.20;83.80
530;DHT22;251;48.704;9.210;2022-10-18T06:42:47;12.10;85.90
530;DHT22;251;48.704;9.210;2022-10-18T06:45:14;12.30;89.20
530;DHT22;251;48.704;9.210;2022-10-18T06:47:44;12.30;91.00
530;DHT22;251;48.704;9.210;2022-10-18T06:50:11;12.40;92.10
530;DHT22;251;48.704;9.210;2022-10-18T06:52:38;12.40;92.30
530;DHT22;251;48.704;9.210;2022-10-18T06:55:07;12.40;93.20
530;DHT22;251;48.704;9.210;2022-10-18T06:57:36;12.40;94.30
530;DHT22;251;48.704;9.210;2022-10-18T07:00:03;12.30;95.30
530;DHT22;251;48.704;9.210;2022-10-18T07:02:30;12.60;95.00
530;DHT22;251;48.704;9.210;2022-10-18T07:04:59;12.70;95.20
530;DHT22;251;48.704;9.210;2022-10-18T07:07:26;12.50;95.80
530;DHT22;251;48.704;9.210;2022-10-18T07:09:53;12.80;96.50
530;DHT22;251;48.704;9.210;2022-10-18T07:12:20;12.90;96.40
530;DHT22;251;48.704;9.210;2022-10-18T07:14:47;12.90;96.80
530;DHT22;251;48.704;9.210;2022-10-18T07:17:14;13.10;96.10
530;DHT22;251;48.704;9.210;2022-10-18T07:19:41;13.10;96.10
530;DHT22;251;48.704;9.210;2022-10-18T07:22:10;13.10;96.70
530;DHT22;251;48.704;9.210;2022-10-18T07:24:37;13.20;97.00
530;DHT22;251;48.704;9.210;2022-10-18T07:27:04;12.90;96.60
530;DHT22;251;48.704;9.210;2022-10-18T07:29:31;12.80;96.40
530;DHT22;251;48.704;9.210;2022-10-18T07:31:59;13.30;96.30
530;DHT22;251;48.704;9.210;2022-10-18T07:34:26;13.20;96.60
530;DHT22;251;48.704;9.210;2022-10-18T07:36:53;12.90;96.70
530;DHT22;251;48.704;9.210;2022-10-18T07:39:21;13.20;97.60
530;DHT22;251;48.704;9.210;2022-10-18T07:41:48;13.40;98.60
530;DHT22;251;48.704;9.210;2022-10-18T07:44:15;13.60;98.80
530;DHT22;251;48.704;9.210;2022-10-18T07:46:43;13.50;99.20
530;DHT22;251;48.704;9.210;2022-10-18T07:49:10;13.30;99.70
530;DHT22;251;48.704;9.210;2022-10-18T07:51:37;13.40;99.90
530;DHT22;251;48.704;9.210;2022-10-18T07:54:04;13.50;99.90
530;DHT22;251;48.704;9.210;2022-10-18T07:56:33;13.80;99.90
530;DHT22;251;48.704;9.210;2022-10-18T07:59:00;13.60;99.90
530;DHT22;251;48.704;9.210;2022-10-18T08:01:26;14.00;99.90
530;DHT22;251;48.704;9.210;2022-10-18T08:03:56;14.00;99.90
530;DHT22;251;48.704;9.210;2022-10-18T08:06:25;14.10;99.90
530;DHT22;251;48.704;9.210;2022-10-18T08:08:53;14.10;99.90
530;DHT22;251;48.704;9.210;2022-10-18T08:11:22;14.10;99.90
530;DHT22;251;48.704;9.210;2022-10-18T08:13:52;14.00;99.90
530;DHT22;251;48.704;9.210;2022-10-18T08:16:21;14.10;99.90
530;DHT22;251;48.704;9.210;2022-10-18T08:18:48;14.20;99.90
530;DHT22;251;48.704;9.210;2022-10-18T08:21:16;14.10;99.90
530;DHT22;251;48.704;9.210;2022-10-18T08:23:44;14.10;99.90
530;DHT22;251;48.704;9.210;2022-10-18T08:26:14;14.10;99.90
530;DHT22;251;48.704;9.210;2022-10-18T08:28:41;14.60;99.90
530;DHT22;251;48.704;9.210;2022-10-18T08:31:12;14.90;99.90
530;DHT22;251;48.704;9.210;2022-10-18T08:33:42;14.70;99.90
530;DHT22;251;48.704;9.210;2022-10-18T08:36:10;14.60;99.90
530;DHT22;251;48.704;9.210;2022-10-18T08:38:39;14.80;99.90
530;DHT22;251;48.704;9.210;2022-10-18T08:41:20;14.60;99.90
530;DHT22;251;48.704;9.210;2022-10-18T08:43:54;15.20;99.90
530;DHT22;251;48.704;9.210;2022-10-18T08:46:23;15.20;99.90
530;DHT22;251;48.704;9.210;2022-10-18T08:48:51;15.10;99.90
530;DHT22;251;48.704;9.210;2022-10-18T08:51:26;15.40;99.90
530;DHT22;251;48.704;9.210;2022-10-18T08:54:00;15.40;99.90
530;DHT22;251;48.704;9.210;2022-10-18T08:56:29;15.60;99.90
530;DHT22;251;48.704;9.210;2022-10-18T08:58:56;15.80;99.90
530;DHT22;251;48.704;9.210;2022-10-18T09:01:31;15.90;96.00
530;DHT22;251;48.704;9.210;2022-10-18T09:04:34;16.10;81.10
530;DHT22;251;48.704;9.210;2022-10-18T09:07:16;16.30;73.10
530;DHT22;251;48.704;9.210;2022-10-18T09:09:49;16.50;67.10
530;DHT22;251;48.704;9.210;2022-10-18T09:12:37;16.70;65.50
530;DHT22;251;48.704;9.210;2022-10-18T09:15:15;16.70;60.70
530;DHT22;251;48.704;9.210;2022-10-18T09:17:58;16.80;60.90
530;DHT22;251;48.704;9.210;2022-10-18T09:20:34;17.00;59.50
530;DHT22;251;48.704;9.210;2022-10-18T09:23:10;17.00;58.10
530;DHT22;251;48.704;9.210;2022-10-18T09:25:44;17.10;58.00
530;DHT22;251;48.704;9.210;2022-10-18T09:28:15;16.70;57.60
530;DHT22;251;48.704;9.210;2022-10-18T09:30:51;16.70;56.00
530;DHT22;251;48.704;9.210;2022-10-18T09:33:41;17.20;56.40
530;DHT22;251;48.704;9.210;2022-10-18T09:36:14;17.30;54.30
530;DHT22;251;48.704;9.210;2022-10-18T09:38:45;17.30;52.90
530;DHT22;251;48.704;9.210;2022-10-18T09:41:17;17.40;50.10
530;DHT22;251;48.704;9.210;2022-10-18T09:43:51;17.70;49.40
530;DHT22;251;48.704;9.210;2022-10-18T09:46:22;17.40;49.20
530;DHT22;251;48.704;9.210;2022-10-18T09:48:55;17.60;47.80
530;DHT22;251;48.704;9.210;2022-10-18T09:51:26;17.50;48.20
530;DHT22;251;48.704;9.210;2022-10-18T09:54:06;17.80;50.30
530;DHT22;251;48.704;9.210;2022-10-18T09:56:39;17.60;48.50
530;DHT22;251;48.704;9.210;2022-10-18T09:59:30;18.00;48.60
530;DHT22;251;48.704;9.210;2022-10-18T10:01:57;18.00;48.00
530;DHT22;251;48.704;9.210;2022-10-18T10:04:26;18.00;46.80
530;DHT22;251;48.704;9.210;2022-10-18T10:06:54;17.90;46.40
530;DHT22;251;48.704;9.210;2022-10-18T10:09:25;18.20;46.30
530;DHT22;251;48.704;9.210;2022-10-18T10:11:54;18.20;44.40
530;DHT22;251;48.704;9.210;2022-10-18T10:14:23;18.30;44.90
530;DHT22;251;48.704;9.210;2022-10-18T10:16:52;18.80;44.70
530;DHT22;251;48.704;9.210;2022-10-18T10:19:23;18.90;45.00
530;DHT22;251;48.704;9.210;2022-10-18T10:22:04;18.80;41.50
530;DHT22;251;48.704;9.210;2022-10-18T10:24:42;18.90;40.60
530;DHT22;251;48.704;9.210;2022-10-18T10:27:17;18.90;37.90
530;DHT22;251;48.704;9.210;2022-10-18T10:29:56;19.10;37.70
530;DHT22;251;48.704;9.210;2022-10-18T10:32:27;19.20;36.90
530;DHT22;251;48.704;9.210;2022-10-18T10:34:54;19.10;38.40
530;DHT22;251;48.704;9.210;2022-10-18T10:37:29;19.10;39.70
530;DHT22;251;48.704;9.210;2022-10-18T10:40:12;19.20;40.50
530;DHT22;251;48.704;9.210;2022-10-18T10:42:51;19.20;41.60
530;DHT22;251;48.704;9.210;2022-10-18T10:45:21;19.10;40.50
530;DHT22;251;48.704;9.210;2022-10-18T10:47:50;19.00;41.30
530;DHT22;251;48.704;9.210;2022-10-18T10:50:23;19.10;40.50
530;DHT22;251;48.704;9.210;2022-10-18T10:52:52;19.00;40.60
530;DHT22;251;48.704;9.210;2022-10-18T10:55:22;19.20;41.40
530;DHT22;251;48.704;9.210;2022-10-18T10:57:53;19.30;41.50
530;DHT22;251;48.704;9.210;2022-10-18T11:00:36;19.50;42.30
530;DHT22;251;48.704;9.210;2022-10-18T11:03:05;19.50;41.80
530;DHT22;251;48.704;9.210;2022-10-18T11:05:42;19.30;39.80
530;DHT22;251;48.704;9.210;2022-10-18T11:08:14;19.60;39.80
530;DHT22;251;48.704;9.210;2022-10-18T11:10:54;19.60;40.10
530;DHT22;251;48.704;9.210;2022-10-18T11:13:32;19.70;41.10
530;DHT22;251;48.704;9.210;2022-10-18T11:16:08;19.60;40.50
530;DHT22;251;48.704;9.210;2022-10-18T11:18:38;19.70;38.80
530;DHT22;251;48.704;9.210;2022-10-18T11:21:10;19.90;40.10
530;DHT22;251;48.704;9.210;2022-10-18T11:23:41;19.60;39.30
530;DHT22;251;48.704;9.210;2022-10-18T11:26:27;19.70;38.60
530;DHT22;251;48.704;9.210;2022-10-18T11:29:12;19.60;39.60
530;DHT22;251;48.704;9.210;2022-10-18T11:31:46;19.50;40.10
530;DHT22;251;48.704;9.210;2022-10-18T11:34:31;19.50;37.80
530;DHT22;251;48.704;9.210;2022-10-18T11:37:10;19.40;39.90
530;DHT22;251;48.704;9.210;2022-10-18T11:39:51;19.30;39.10
530;DHT22;251;48.704;9.210;2022-10-18T11:42:25;19.40;41.10
530;DHT22;251;48.704;9.210;2022-10-18T11:45:02;19.50;41.40
530;DHT22;251;48.704;9.210;2022-10-18T11:47:36;19.40;40.60
530;DHT22;251;48.704;9.210;2022-10-18T11:50:13;19.30;40.90
530;DHT22;251;48.704;9.210;2022-10-18T11:52:52;19.30;40.50
530;DHT22;251;48.704;9.210;2022-10-18T11:55:44;19.30;40.80
530;DHT22;251;48.704;9.210;2022-10-18T11:58:24;19.50;40.90
530;DHT22;251;48.704;9.210;2022-10-18T12:00:56;19.50;41.10
530;DHT22;251;48.704;9.210;2022-10-18T12:03:30;19.70;40.60
530;DHT22;251;48.704;9.210;2022-10-18T12:06:02;19.70;39.40
530;DHT22;251;48.704;9.210;2022-10-18T12:08:33;19.90;38.50
530;DHT22;251;48.704;9.210;2022-10-18T12:11:08;19.80;36.80
530;DHT22;251;48.704;9.210;2022-10-18T12:13:42;20.00;36.00
530;DHT22;251;48.704;9.210;2022-10-18T12:16:10;20.00;36.20
530;DHT22;251;48.704;9.210;2022-10-18T12:18:46;19.90;35.80
530;DHT22;251;48.704;9.210;2022-10-18T12:21:18;19.80;36.00
530;DHT22;251;48.704;9.210;2022-10-18T12:23:50;19.80;36.10
530;DHT22;251;48.704;9.210;2022-10-18T12:26:18;19.80;37.10
530;DHT22;251;48.704;9.210;2022-10-18T12:28:59;19.90;37.80
530;DHT22;251;48.704;9.210;2022-10-18T12:31:31;19.80;36.00
530;DHT22;251;48.704;9.210;2022-10-18T12:34:02;19.80;35.70
530;DHT22;251;48.704;9.210;2022-10-18T12:36:49;19.90;35.80
530;DHT22;251;48.704;9.210;2022-10-18T12:39:22;19.80;35.80
530;DHT22;251;48.704;9.210;2022-10-18T12:41:54;19.80;35.60
530;DHT22;251;48.704;9.210;2022-10-18T12:44:27;19.80;36.20
530;DHT22;251;48.704;9.210;2022-10-18T12:46:57;20.10;34.50
530;DHT22;251;48.704;9.210;2022-10-18T12:49:28;20.10;35.20
530;DHT22;251;48.704;9.210;2022-10-18T14:27:23;19.40;35.60
530;DHT22;251;48.704;9.210;2022-10-18T14:30:07;19.40;37.00
530;DHT22;251;48.704;9.210;2022-10-18T14:32:35;19.50;35.70
530;DHT22;251;48.704;9.210;2022-10-18T14:35:15;19.50;35.70
530;DHT22;251;48.704;9.210;2022-10-18T14:37:44;19.20;35.70
530;DHT22;251;48.704;9.210;2022-10-18T14:40:25;19.50;36.40
530;DHT22;251;48.704;9.210;2022-10-18T14:42:54;19.20;35.40
530;DHT22;251;48.704;9.210;2022-10-18T14:45:22;19.30;35.70
530;DHT22;251;48.704;9.210;2022-10-18T14:47:49;19.40;35.60
530;DHT22;251;48.704;9.210;2022-10-18T14:50:24;19.50;36.70
530;DHT22;251;48.704;9.210;2022-10-18T14:52:52;19.40;36.60
530;DHT22;251;48.704;9.210;2022-10-18T14:55:24;19.50;36.90
530;DHT22;251;48.704;9.210;2022-10-18T14:57:53;19.20;37.10
530;DHT22;251;48.704;9.210;2022-10-18T15:00:25;19.30;38.40
530;DHT22;251;48.704;9.210;2022-10-18T15:02:54;19.40;38.80
530;DHT22;251;48.704;9.210;2022-10-18T15:05:24;19.50;38.90
530;DHT22;251;48.704;9.210;2022-10-18T15:07:52;19.40;38.90
530;DHT22;251;48.704;9.210;2022-10-18T15:10:23;19.50;39.50
530;DHT22;251;48.704;9.210;2022-10-18T15:12:51;19.30;40.40
530;DHT22;251;48.704;9.210;2022-10-18T15:15:21;19.20;40.10
530;DHT22;251;48.704;9.210;2022-10-18T15:17:51;19.20;40.10
530;DHT22;251;48.704;9.210;2022-10-18T15:20:21;19.40;40.10
530;DHT22;251;48.704;9.210;2022-10-18T15:22:50;19.40;39.80
530;DHT22;251;48.704;9.210;2022-10-18T15:25:21;19.40;40.00
530;DHT22;251;48.704;9.210;2022-10-18T15:27:51;19.00;39.60
530;DHT22;251;48.704;9.210;2022-10-18T15:30:25;19.20;40.80
530;DHT22;251;48.704;9.210;2022-10-18T15:32:54;19.20;40.60
530;DHT22;251;48.704;9.210;2022-10-18T15:35:24;19.10;40.20
530;DHT22;251;48.704;9.210;2022-10-18T15:37:52;19.00;39.90
530;DHT22;251;48.704;9.210;2022-10-18T15:40:37;19.30;40.80
530;DHT22;251;48.704;9.210;2022-10-18T15:43:31;19.10;40.80
530;DHT22;251;48.704;9.210;2022-10-18T15:45:58;19.20;41.40
530;DHT22;251;48.704;9.210;2022-10-18T15:48:29;19.30;41.80
530;DHT22;251;48.704;9.210;2022-10-18T15:50:58;19.00;41.50
530;DHT22;251;48.704;9.210;2022-10-18T15:53:42;19.20;42.00
530;DHT22;251;48.704;9.210;2022-10-18T15:56:34;18.90;41.50
530;DHT22;251;48.704;9.210;2022-10-18T15:59:03;19.30;42.40
530;DHT22;251;48.704;9.210;2022-10-18T16:01:43;18.90;42.80
530;DHT22;251;48.704;9.210;2022-10-18T16:04:15;18.90;42.90
530;DHT22;251;48.704;9.210;2022-10-18T16:06:44;18.70;43.10
530;DHT22;251;48.704;9.210;2022-10-18T16:09:14;18.70;43.20
530;DHT22;251;48.704;9.210;2022-10-18T16:11:41;18.60;43.60
530;DHT22;251;48.704;9.210;2022-10-18T16:14:08;18.90;44.30
530;DHT22;251;48.704;9.210;2022-10-18T16:16:35;18.80;44.70
530;DHT22;251;48.704;9.210;2022-10-18T16:19:04;18.70;44.60
530;DHT22;251;48.704;9.210;2022-10-18T16:21:33;18.50;44.50
530;DHT22;251;48.704;9.210;2022-10-18T16:24:01;18.80;44.90
530;DHT22;251;48.704;9.210;2022-10-18T16:26:28;18.90;45.00
530;DHT22;251;48.704;9.210;2022-10-18T16:28:57;18.70;44.60
530;DHT22;251;48.704;9.210;2022-10-18T16:31:25;18.60;44.50
530;DHT22;251;48.704;9.210;2022-10-18T16:33:53;18.60;44.70
530;DHT22;251;48.704;9.210;2022-10-18T16:36:23;18.60;44.90
530;DHT22;251;48.704;9.210;2022-10-18T16:38:51;18.70;45.20
530;DHT22;251;48.704;9.210;2022-10-18T16:41:19;18.50;45.10
530;DHT22;251;48.704;9.210;2022-10-18T16:43:48;18.80;45.40
530;DHT22;251;48.704;9.210;2022-10-18T16:46:17;18.30;44.80
530;DHT22;251;48.704;9.210;2022-10-18T16:48:46;18.30;45.40
530;DHT22;251;48.704;9.210;2022-10-18T16:51:13;18.70;46.00
530;DHT22;251;48.704;9.210;2022-10-18T16:53:42;18.70;46.10
530;DHT22;251;48.704;9.210;2022-10-18T16:56:12;18.10;45.80
530;DHT22;251;48.704;9.210;2022-10-18T16:58:40;18.20;46.20
530;DHT22;251;48.704;9.210;2022-10-18T17:01:09;18.20;46.00
530;DHT22;251;48.704;9.210;2022-10-18T17:03:36;18.50;46.80
530;DHT22;251;48.704;9.210;2022-10-18T17:06:08;18.30;46.60
530;DHT22;251;48.704;9.210;2022-10-18T17:08:39;18.30;46.80
530;DHT22;251;48.704;9.210;2022-10-18T17:11:08;18.20;47.10
530;DHT22;251;48.704;9.210;2022-10-18T17:13:36;18.20;47.00
530;DHT22;251;48.704;9.210;2022-10-18T17:16:03;18.10;47.10
530;DHT22;251;48.704;9.210;2022-10-18T17:18:31;18.10;47.30
530;DHT22;251;48.704;9.210;2022-10-18T17:20:58;18.20;47.10
530;DHT22;251;48.704;9.210;2022-10-18T17:23:27;18.40;47.60
530;DHT22;251;48.704;9.210;2022-10-18T17:25:54;18.10;47.60
530;DHT22;251;48.704;9.210;2022-10-18T17:28:23;18.10;48.10
530;DHT22;251;48.704;9.210;2022-10-18T17:30:50;18.00;47.90
530;DHT22;251;48.704;9.210;2022-10-18T17:33:16;18.10;48.20
530;DHT22;251;48.704;9.210;2022-10-18T17:35:43;18.00;48.10
530;DHT22;251;48.704;9.210;2022-10-18T17:38:10;18.10;48.20
530;DHT22;251;48.704;9.210;2022-10-18T17:40:38;17.80;48.10
530;DHT22;251;48.704;9.210;2022-10-18T17:43:05;18.00;48.50
530;DHT22;251;48.704;9.210;2022-10-18T17:45:33;18.10;48.50
530;DHT22;251;48.704;9.210;2022-10-18T17:48:01;18.10;48.60
530;DHT22;251;48.704;9.210;2022-10-18T17:50:28;17.90;48.90
530;DHT22;251;48.704;9.210;2022-10-18T17:52:55;17.90;48.50
530;DHT22;251;48.704;9.210;2022-10-18T17:55:22;18.00;48.90
530;DHT22;251;48.704;9.210;2022-10-18T17:57:50;17.70;47.90
530;DHT22;251;48.704;9.210;2022-10-18T18:00:17;17.70;48.70
530;DHT22;251;48.704;9.210;2022-10-18T18:02:45;18.00;49.20
530;DHT22;251;48.704;9.210;2022-10-18T18:05:12;17.70;48.90
530;DHT22;251;48.704;9.210;2022-10-18T18:07:39;17.90;48.80
530;DHT22;251;48.704;9.210;2022-10-18T18:10:06;17.50;49.80
530;DHT22;251;48.704;9.210;2022-10-18T18:12:33;17.60;49.10
530;DHT22;251;48.704;9.210;2022-10-18T18:15:00;17.50;49.80
530;DHT22;251;48.704;9.210;2022-10-18T18:17:27;17.90;50.00
530;DHT22;251;48.704;9.210;2022-10-18T18:19:56;17.50;49.80
530;DHT22;251;48.704;9.210;2022-10-18T18:22:23;17.60;50.80
530;DHT22;251;48.704;9.210;2022-10-18T18:24:49;17.50;50.20
530;DHT22;251;48.704;9.210;2022-10-18T18:27:16;17.40;50.10
530;DHT22;251;48.704;9.210;2022-10-18T18:29:43;17.50;51.30